Time;durP1;ratioP1;P1;durP2;ratioP2;P2;SDS_P1;SDS_P2;PMS_P1;PMS_P2;Temp;Humidity;BMP_temperature;BMP_pressure;BME280_temperature;BME280_humidity;BME280_pressure;Samples;Min_cycle;Max_cycle;Signal;HPM_P1;HPM_P2
2022/07/20 00:00:11;;;;;;;6.82;6.53;;;;;;;-143.83;100.00;62900.06;5112281;28;20027;-62
2022/07/20 00:02:37;;;;;;;6.80;6.50;;;;;;;-143.83;100.00;62900.06;5110188;28;20035;-60
2022/07/20 00:05:03;;;;;;;6.72;6.43;;;;;;;-143.83;100.00;62900.06;5104820;28;20372;-61
2022/07/20 00:07:29;;;;;;;6.60;6.30;;;;;;;-143.83;100.00;62900.06;5106363;28;20051;-61
2022/07/20 00:12:38;;;;;;;6.60;6.30;;;;;;;-143.83;100.00;62900.06;5112410;28;20236;-61
2022/07/20 00:15:04;;;;;;;6.60;6.30;;;;;;;-143.83;100.00;62900.06;5111106;28;20425;-60
2022/07/20 00:17:29;;;;;;;6.70;6.40;;;;;;;-143.83;100.00;62900.06;5111770;28;20107;-60
2022/07/20 00:19:55;;;;;;;6.45;6.15;;;;;;;-143.83;100.00;62900.06;5102485;28;20038;-60
2022/07/20 00:22:20;;;;;;;6.53;6.22;;;;;;;-143.83;100.00;62900.06;5112248;28;20107;-60
2022/07/20 00:24:46;;;;;;;6.40;6.10;;;;;;;-143.83;100.00;62900.06;5112047;28;20027;-60
2022/07/20 00:27:11;;;;;;;6.68;6.38;;;;;;;-143.83;100.00;62900.06;5111684;28;20035;-60
2022/07/20 00:29:37;;;;;;;6.50;6.20;;;;;;;-143.83;100.00;62900.06;5111548;28;20050;-60
2022/07/20 00:32:02;;;;;;;6.80;6.50;;;;;;;-143.83;100.00;62900.06;5111673;28;20079;-60
2022/07/20 00:34:28;;;;;;;6.70;6.40;;;;;;;-143.83;100.00;62900.06;5111940;28;20027;-60
2022/07/20 00:36:53;;;;;;;6.80;6.50;;;;;;;-143.83;100.00;62900.06;5112007;27;20149;-61
2022/07/20 00:39:19;;;;;;;6.80;6.50;;;;;;;-143.83;100.00;62900.06;5115998;28;20023;-60
2022/07/20 00:41:44;;;;;;;6.60;6.30;;;;;;;-143.83;100.00;62900.06;5115914;28;20549;-60
2022/07/20 00:44:10;;;;;;;6.80;6.50;;;;;;;-143.83;100.00;62900.06;5116083;28;20034;-61
2022/07/20 00:46:42;;;;;;;6.68;6.38;;;;;;;-143.83;100.00;62900.06;5114592;28;20458;-59
2022/07/20 00:49:09;;;;;;;6.60;6.30;;;;;;;-143.83;100.00;62900.06;5104143;28;20023;-61
2022/07/20 00:51:35;;;;;;;6.70;6.40;;;;;;;-143.83;100.00;62900.06;5115829;28;20019;-61
2022/07/20 00:54:03;;;;;;;6.90;6.60;;;;;;;-143.83;100.00;62900.06;5108713;27;20024;-61
2022/07/20 00:56:29;;;;;;;6.60;6.30;;;;;;;-143.83;100.00;62900.06;5116729;28;20034;-61
2022/07/20 00:58:54;;;;;;;6.50;6.20;;;;;;;-143.83;100.00;62900.06;5112803;28;20020;-61
2022/07/20 01:01:20;;;;;;;6.60;6.30;;;;;;;-143.83;100.00;62900.06;5095258;28;20023;-61
2022/07/20 01:03:46;;;;;;;6.80;6.50;;;;;;;-143.83;100.00;62900.06;5107597;28;20545;-61
2022/07/20 01:06:12;;;;;;;6.80;6.50;;;;;;;-143.83;100.00;62900.06;5105088;28;20019;-60
2022/07/20 01:08:38;;;;;;;6.70;6.40;;;;;;;-143.83;100.00;62900.06;5115668;28;20088;-61
2022/07/20 01:11:04;;;;;;;6.60;6.30;;;;;;;-143.83;100.00;62900.06;5118111;27;20058;-61
2022/07/20 01:13:30;;;;;;;6.70;6.40;;;;;;;-143.83;100.00;62900.06;5115726;28;20069;-60
2022/07/20 01:15:56;;;;;;;6.80;6.50;;;;;;;-143.83;100.00;62900.06;5115351;28;20446;-62
2022/07/20 01:18:22;;;;;;;6.47;6.18;;;;;;;-143.83;100.00;62900.06;5119137;27;20031;-61
2022/07/20 01:20:49;;;;;;;6.60;6.30;;;;;;;-143.83;100.00;62900.06;5106711;28;20067;-62
2022/07/20 01:23:15;;;;;;;6.50;6.20;;;;;;;-143.83;100.00;62900.06;5100162;28;20480;-61
2022/07/20 01:25:42;;;;;;;6.70;6.40;;;;;;;-143.83;100.00;62900.06;5112584;28;20026;-61
2022/07/20 01:28:09;;;;;;;6.50;6.20;;;;;;;-143.83;100.00;62900.06;5107226;27;20036;-60
2022/07/20 01:30:36;;;;;;;6.70;6.40;;;;;;;-143.83;100.00;62900.06;5115576;28;20044;-61
2022/07/20 01:33:01;;;;;;;6.93;6.63;;;;;;;-143.83;100.00;62900.06;5114757;28;20023;-61
2022/07/20 01:35:27;;;;;;;6.50;6.20;;;;;;;-143.83;100.00;62900.06;5115078;28;20035;-61
2022/07/20 01:37:52;;;;;;;6.70;6.40;;;;;;;-143.83;100.00;62900.06;5105728;28;20031;-61
2022/07/20 01:40:18;;;;;;;6.75;6.45;;;;;;;-143.83;100.00;62900.06;5114784;28;20043;-61
2022/07/20 01:42:43;;;;;;;6.50;6.20;;;;;;;-143.83;100.00;62900.06;5114991;28;20047;-61
2022/07/20 01:45:10;;;;;;;6.68;6.38;;;;;;;-143.83;100.00;62900.06;5106298;27;20457;-61
2022/07/20 01:47:35;;;;;;;6.72;6.43;;;;;;;-143.83;100.00;62900.06;5111984;28;20019;-61
2022/07/20 01:50:01;;;;;;;6.38;6.07;;;;;;;-143.83;100.00;62900.06;5113442;28;20108;-60
2022/07/20 01:52:26;;;;;;;6.35;6.07;;;;;;;-143.83;100.00;62900.06;5114962;28;20020;-61
2022/07/20 01:54:52;;;;;;;6.57;6.28;;;;;;;-143.83;100.00;62900.06;5114426;28;20106;-61
2022/07/20 01:57:18;;;;;;;6.50;6.20;;;;;;;-143.83;100.00;62900.06;5113147;28;20023;-60
2022/07/20 01:59:43;;;;;;;6.60;6.30;;;;;;;-143.83;100.00;62900.06;5100581;28;20505;-61
2022/07/20 02:02:09;;;;;;;6.50;6.20;;;;;;;-143.83;100.00;62900.06;5113232;27;20039;-61
2022/07/20 02:04:35;;;;;;;6.60;6.30;;;;;;;-143.83;100.00;62900.06;5114554;28;20061;-60
2022/07/20 02:07:01;;;;;;;6.70;6.40;;;;;;;-143.83;100.00;62900.06;5114187;28;20020;-60
2022/07/20 02:09:26;;;;;;;6.80;6.50;;;;;;;-143.83;100.00;62900.06;5114579;28;20027;-61
2022/07/20 02:11:53;;;;;;;6.70;6.40;;;;;;;-143.83;100.00;62900.06;5114290;28;20437;-61
2022/07/20 02:14:18;;;;;;;6.75;6.45;;;;;;;-143.83;100.00;62900.06;5114278;27;20032;-61
2022/07/20 02:16:44;;;;;;;6.65;6.35;;;;;;;-143.83;100.00;62900.06;5100776;28;20020;-61
2022/07/20 02:19:10;;;;;;;6.70;6.40;;;;;;;-143.83;100.00;62900.06;5114129;27;20035;-61
2022/07/20 02:21:35;;;;;;;6.50;6.20;;;;;;;-143.83;100.00;62900.06;5114390;28;20027;-60
2022/07/20 02:24:01;;;;;;;6.50;6.20;;;;;;;-143.83;100.00;62900.06;5114129;28;20368;-61
2022/07/20 02:26:27;;;;;;;6.50;6.20;;;;;;;-143.83;100.00;62900.06;5114335;28;20431;-62
2022/07/20 02:28:52;;;;;;;6.50;6.20;;;;;;;-143.83;100.00;62900.06;5113779;28;20023;-62
2022/07/20 02:31:19;;;;;;;6.65;6.35;;;;;;;-143.83;100.00;62900.06;5113819;28;20028;-61
2022/07/20 02:33:45;;;;;;;6.43;6.13;;;;;;;-143.83;100.00;62900.06;5110758;28;20036;-60
2022/07/20 02:36:11;;;;;;;6.57;6.28;;;;;;;-143.83;100.00;62900.06;5110315;27;20022;-61
2022/07/20 02:38:37;;;;;;;6.50;6.20;;;;;;;-143.83;100.00;62900.06;5114201;28;20067;-61
2022/07/20 02:41:03;;;;;;;6.60;6.30;;;;;;;-143.83;100.00;62900.06;5099400;28;20067;-61
2022/07/20 02:43:29;;;;;;;6.60;6.30;;;;;;;-143.83;100.00;62900.06;5113473;28;20108;-61
2022/07/20 02:45:55;;;;;;;6.47;6.18;;;;;;;-143.83;100.00;62900.06;5113726;28;20027;-61
2022/07/20 02:48:20;;;;;;;6.50;6.20;;;;;;;-143.83;100.00;62900.06;5113600;28;20031;-61
2022/07/20 02:50:46;;;;;;;6.57;6.28;;;;;;;-143.83;100.00;62900.06;5093499;28;20028;-61
2022/07/20 02:53:13;;;;;;;6.53;6.22;;;;;;;-143.83;100.00;62900.06;5109072;27;20110;-61
2022/07/20 02:55:40;;;;;;;6.20;5.97;;;;;;;-143.83;100.00;62900.06;5113335;28;20020;-61
2022/07/20 02:58:06;;;;;;;6.53;6.22;;;;;;;-143.83;100.00;62900.06;5113356;28;20037;-61
2022/07/20 03:00:32;;;;;;;6.57;6.28;;;;;;;-143.83;100.00;62900.06;5112907;28;20558;-61
2022/07/20 03:02:57;;;;;;;6.60;6.30;;;;;;;-143.83;100.00;62900.06;5106911;28;20119;-61
2022/07/20 03:05:23;;;;;;;6.70;6.40;;;;;;;-143.83;100.00;62900.06;5110872;28;20019;-60
2022/07/20 03:07:48;;;;;;;7.00;6.70;;;;;;;-143.83;100.00;62900.06;5113007;28;20027;-62
2022/07/20 03:10:14;;;;;;;6.93;6.63;;;;;;;-143.83;100.00;62900.06;5113454;27;20031;-62
2022/07/20 03:12:40;;;;;;;6.70;6.40;;;;;;;-143.83;100.00;62900.06;5113144;28;20032;-62
2022/07/20 03:15:07;;;;;;;6.68;6.38;;;;;;;-143.83;100.00;62900.06;5113032;28;20028;-61
2022/07/20 03:17:32;;;;;;;6.47;6.18;;;;;;;-143.83;100.00;62900.06;5112762;28;20027;-61
2022/07/20 03:19:58;;;;;;;6.82;6.53;;;;;;;-143.83;100.00;62900.06;5109519;28;20044;-62
2022/07/20 03:22:24;;;;;;;6.78;6.47;;;;;;;-143.83;100.00;62900.06;5101976;28;20393;-59
2022/07/20 03:24:49;;;;;;;6.75;6.45;;;;;;;-143.83;100.00;62900.06;5110217;28;20031;-61
2022/07/20 03:27:15;;;;;;;6.75;6.45;;;;;;;-143.83;100.00;62900.06;5112541;27;20036;-61
2022/07/20 03:29:41;;;;;;;6.80;6.50;;;;;;;-143.83;100.00;62900.06;5112697;28;20046;-61
2022/07/20 03:32:07;;;;;;;6.70;6.40;;;;;;;-143.83;100.00;62900.06;5112775;27;20034;-60
2022/07/20 03:34:32;;;;;;;6.80;6.50;;;;;;;-143.83;100.00;62900.06;5112977;28;20028;-62
2022/07/20 03:36:58;;;;;;;6.90;6.60;;;;;;;-143.83;100.00;62900.06;5102770;27;20063;-61
2022/07/20 03:39:23;;;;;;;6.88;6.57;;;;;;;-143.83;100.00;62900.06;5102869;28;20067;-62
2022/07/20 03:41:49;;;;;;;6.93;6.63;;;;;;;-143.83;100.00;62900.06;5117645;27;20088;-61
2022/07/20 03:44:14;;;;;;;6.88;6.57;;;;;;;-143.83;100.00;62900.06;5110784;27;20635;-61
2022/07/20 03:46:40;;;;;;;7.10;6.80;;;;;;;-143.83;100.00;62900.06;5107524;28;20103;-62
2022/07/20 03:49:05;;;;;;;6.85;6.55;;;;;;;-143.83;100.00;62900.06;5105980;27;20024;-60
2022/07/20 03:51:31;;;;;;;7.10;6.80;;;;;;;-143.83;100.00;62900.06;5107053;27;20023;-60
2022/07/20 03:53:57;;;;;;;7.10;6.80;;;;;;;-143.83;100.00;62900.06;5110898;28;20379;-60
2022/07/20 03:56:22;;;;;;;6.97;6.68;;;;;;;-143.83;100.00;62900.06;5110000;28;20039;-61
2022/07/20 03:58:48;;;;;;;6.95;6.65;;;;;;;-143.83;100.00;62900.06;5112226;28;20084;-61
2022/07/20 04:01:13;;;;;;;7.15;6.85;;;;;;;-143.83;100.00;62900.06;5113382;28;20027;-60
2022/07/20 04:03:39;;;;;;;7.03;6.72;;;;;;;-143.83;100.00;62900.06;5111104;28;20085;-60
2022/07/20 04:06:04;;;;;;;6.97;6.68;;;;;;;-143.83;100.00;62900.06;5115595;27;20019;-59
2022/07/20 04:08:30;;;;;;;7.00;6.70;;;;;;;-143.83;100.00;62900.06;5122339;27;20024;-60
2022/07/20 04:10:55;;;;;;;7.05;6.75;;;;;;;-143.83;100.00;62900.06;5111966;28;20027;-60
2022/07/20 04:13:21;;;;;;;7.20;6.90;;;;;;;-143.83;100.00;62900.06;5104277;28;20024;-60
2022/07/20 04:15:47;;;;;;;7.25;6.95;;;;;;;-143.83;100.00;62900.06;5103904;28;20103;-61
2022/07/20 04:18:16;;;;;;;7.25;6.95;;;;;;;-143.83;100.00;62900.06;5105364;28;20114;-61
2022/07/20 04:20:42;;;;;;;6.97;6.68;;;;;;;-143.83;100.00;62900.06;5110691;28;20054;-60
2022/07/20 04:23:07;;;;;;;7.40;7.10;;;;;;;-143.83;100.00;62900.06;5114878;27;20059;-60
2022/07/20 04:25:33;;;;;;;7.18;6.88;;;;;;;-143.83;100.00;62900.06;5106974;28;20055;-61
2022/07/20 04:27:58;;;;;;;7.20;6.90;;;;;;;-143.83;100.00;62900.06;5110365;28;20386;-60
2022/07/20 04:30:24;;;;;;;7.20;6.90;;;;;;;-143.83;100.00;62900.06;5110856;28;20095;-61
2022/07/20 04:32:50;;;;;;;7.05;6.75;;;;;;;-143.83;100.00;62900.06;5112200;28;20440;-60
2022/07/20 04:35:15;;;;;;;6.95;6.65;;;;;;;-143.83;100.00;62900.06;5108282;28;20023;-61
2022/07/20 04:37:41;;;;;;;7.10;6.80;;;;;;;-143.83;100.00;62900.06;5098038;28;20016;-61
2022/07/20 04:40:07;;;;;;;7.00;6.70;;;;;;;-143.83;100.00;62900.06;5098255;28;20129;-60
2022/07/20 04:42:33;;;;;;;7.20;6.90;;;;;;;-143.83;100.00;62900.06;5103496;28;20032;-61
2022/07/20 04:44:58;;;;;;;6.90;6.60;;;;;;;-143.83;100.00;62900.06;5103652;28;20032;-60
2022/07/20 04:47:24;;;;;;;7.10;6.80;;;;;;;-143.83;100.00;62900.06;5109203;28;20107;-61
2022/07/20 04:49:49;;;;;;;7.28;6.97;;;;;;;-143.83;100.00;62900.06;5109151;28;20032;-61
2022/07/20 04:52:15;;;;;;;7.22;6.93;;;;;;;-143.83;100.00;62900.06;5112932;28;20036;-61
2022/07/20 04:54:41;;;;;;;7.18;6.88;;;;;;;-143.83;100.00;62900.06;5110945;28;20024;-63
2022/07/20 04:57:07;;;;;;;7.40;7.10;;;;;;;-143.83;100.00;62900.06;5105721;28;20027;-61
2022/07/20 04:59:33;;;;;;;7.30;7.00;;;;;;;-143.83;100.00;62900.06;5105589;28;20131;-62
2022/07/20 05:01:58;;;;;;;7.30;7.00;;;;;;;-143.83;100.00;62900.06;5102282;28;20035;-62
2022/07/20 05:04:24;;;;;;;7.20;6.90;;;;;;;-143.83;100.00;62900.06;5113923;27;20107;-62
2022/07/20 05:06:49;;;;;;;7.00;6.70;;;;;;;-143.83;100.00;62900.06;5107816;28;20024;-63
2022/07/20 05:09:15;;;;;;;7.30;7.00;;;;;;;-143.83;100.00;62900.06;5108779;28;20028;-62
2022/07/20 05:11:40;;;;;;;7.05;6.75;;;;;;;-143.83;100.00;62900.06;5109364;28;20027;-62
2022/07/20 05:14:08;;;;;;;7.25;6.95;;;;;;;-143.83;100.00;62900.06;5100513;28;20099;-62
2022/07/20 05:16:34;;;;;;;7.20;6.90;;;;;;;-143.83;100.00;62900.06;5107689;28;20587;-63
2022/07/20 05:18:59;;;;;;;7.30;7.00;;;;;;;-143.83;100.00;62900.06;5109259;28;20036;-62
2022/07/20 05:21:25;;;;;;;7.18;6.88;;;;;;;-143.83;100.00;62900.06;5113172;28;20023;-62
2022/07/20 05:23:50;;;;;;;7.40;7.10;;;;;;;-143.83;100.00;62900.06;5112479;27;20030;-62
2022/07/20 05:26:16;;;;;;;7.40;7.10;;;;;;;-143.83;100.00;62900.06;5110515;27;20042;-62
2022/07/20 05:28:42;;;;;;;7.40;7.10;;;;;;;-143.83;100.00;62900.06;5110767;28;20029;-61
2022/07/20 05:31:08;;;;;;;7.30;7.00;;;;;;;-143.83;100.00;62900.06;5112134;28;20122;-62
2022/07/20 05:33:35;;;;;;;7.40;7.10;;;;;;;-143.83;100.00;62900.06;5113105;28;20077;-62
2022/07/20 05:36:02;;;;;;;7.20;6.90;;;;;;;-143.83;100.00;62900.06;5110651;28;20133;-62
2022/07/20 05:38:29;;;;;;;7.50;7.20;;;;;;;-143.83;100.00;62900.06;5112303;28;20023;-61
2022/07/20 05:40:55;;;;;;;7.30;7.00;;;;;;;-143.83;100.00;62900.06;5113438;27;20045;-62
2022/07/20 05:43:21;;;;;;;7.20;6.90;;;;;;;-143.83;100.00;62900.06;5107537;27;20032;-61
2022/07/20 05:45:47;;;;;;;7.43;7.13;;;;;;;-143.83;100.00;62900.06;5113305;28;20020;-62
2022/07/20 05:48:14;;;;;;;7.35;7.05;;;;;;;-143.83;100.00;62900.06;5112212;28;20439;-62
2022/07/20 05:50:41;;;;;;;7.18;6.88;;;;;;;-143.83;100.00;62900.06;5105878;28;20115;-62
2022/07/20 05:53:07;;;;;;;7.15;6.85;;;;;;;-143.83;100.00;62900.06;5111501;27;20056;-62
2022/07/20 05:55:34;;;;;;;7.28;6.97;;;;;;;-143.83;100.00;62900.06;5119391;27;20066;-63
2022/07/20 05:58:00;;;;;;;7.32;7.03;;;;;;;-143.83;100.00;62900.06;5104315;27;20107;-62
2022/07/20 06:00:26;;;;;;;7.38;7.07;;;;;;;-143.83;100.00;62900.06;5113335;27;20051;-63
2022/07/20 06:02:51;;;;;;;7.35;7.05;;;;;;;-143.83;100.00;62900.06;5112795;28;20058;-62
2022/07/20 06:05:17;;;;;;;7.50;7.20;;;;;;;-143.83;100.00;62900.06;5108608;28;20039;-62
2022/07/20 06:07:43;;;;;;;7.38;7.07;;;;;;;-143.83;100.00;62900.06;5110890;28;20474;-62
2022/07/20 06:10:10;;;;;;;7.50;7.20;;;;;;;-143.83;100.00;62900.06;5114112;28;20111;-63
2022/07/20 06:12:35;;;;;;;7.60;7.30;;;;;;;-143.83;100.00;62900.06;5113416;28;20026;-62
2022/07/20 06:15:01;;;;;;;7.60;7.30;;;;;;;-143.83;100.00;62900.06;5112785;28;20114;-62
2022/07/20 06:17:44;;;;;;;7.10;6.80;;;;;;;-143.83;100.00;62900.06;5112533;27;20028;-61
2022/07/20 06:20:12;;;;;;;7.43;7.13;;;;;;;-143.83;100.00;62900.06;5109259;28;20487;-62
2022/07/20 06:22:39;;;;;;;7.40;7.10;;;;;;;-143.83;100.00;62900.06;5100521;27;20040;-62
2022/07/20 06:25:05;;;;;;;7.15;6.85;;;;;;;-143.83;100.00;62900.06;5113325;28;20020;-62
2022/07/20 06:27:31;;;;;;;7.35;7.05;;;;;;;-143.83;100.00;62900.06;5113227;28;20028;-62
2022/07/20 06:29:58;;;;;;;7.53;7.22;;;;;;;-143.83;100.00;62900.06;5113524;28;20053;-62
2022/07/20 06:32:25;;;;;;;7.40;7.10;;;;;;;-143.83;100.00;62900.06;5098571;28;20114;-64
2022/07/20 06:34:51;;;;;;;7.30;7.00;;;;;;;-143.83;100.00;62900.06;5098264;27;20032;-63
2022/07/20 06:37:16;;;;;;;7.43;7.13;;;;;;;-143.83;100.00;62900.06;5109867;27;20019;-63
2022/07/20 06:39:42;;;;;;;7.53;7.22;;;;;;;-143.83;100.00;62900.06;5094699;28;20062;-63
2022/07/20 06:42:07;;;;;;;7.40;7.10;;;;;;;-143.83;100.00;62900.06;5089964;27;20058;-63
2022/07/20 06:44:33;;;;;;;7.38;7.07;;;;;;;-143.83;100.00;62900.06;5083944;27;20028;-63
2022/07/20 06:46:58;;;;;;;7.55;7.25;;;;;;;-143.83;100.00;62900.06;5091055;27;20076;-63
2022/07/20 06:49:27;;;;;;;7.55;7.25;;;;;;;-143.83;100.00;62900.06;5092313;27;20062;-62
2022/07/20 06:51:55;;;;;;;7.80;7.50;;;;;;;-143.83;100.00;62900.06;5094457;27;21630;-64
2022/07/20 06:54:21;;;;;;;7.50;7.20;;;;;;;-143.83;100.00;62900.06;5089699;27;20039;-63
2022/07/20 06:56:47;;;;;;;7.60;7.30;;;;;;;-143.83;100.00;62900.06;5092618;27;20094;-63
2022/07/20 06:59:12;;;;;;;7.75;7.45;;;;;;;-143.83;100.00;62900.06;5088597;27;20118;-63
2022/07/20 07:01:39;;;;;;;7.50;7.20;;;;;;;-143.83;100.00;62900.06;5095765;27;20438;-64
2022/07/20 07:04:04;;;;;;;7.60;7.30;;;;;;;-143.83;100.00;62900.06;5095352;27;20047;-64
2022/07/20 07:06:30;;;;;;;7.38;7.07;;;;;;;-143.83;100.00;62900.06;5091602;27;20032;-63
2022/07/20 07:08:57;;;;;;;7.70;7.40;;;;;;;-143.83;100.00;62900.06;5090895;27;20031;-63
2022/07/20 07:11:22;;;;;;;7.50;7.20;;;;;;;-143.83;100.00;62900.06;5092324;27;20034;-63
2022/07/20 07:13:48;;;;;;;7.40;7.10;;;;;;;-143.83;100.00;62900.06;5091255;27;20039;-63
2022/07/20 07:16:13;;;;;;;7.40;7.10;;;;;;;-143.83;100.00;62900.06;5096153;27;20050;-62
2022/07/20 07:18:39;;;;;;;7.40;7.10;;;;;;;-143.83;100.00;62900.06;5090552;27;20380;-64
2022/07/20 07:21:04;;;;;;;7.60;7.30;;;;;;;-143.83;100.00;62900.06;5090530;27;20031;-64
2022/07/20 07:23:30;;;;;;;7.80;7.50;;;;;;;-143.83;100.00;62900.06;5091316;27;20122;-64
2022/07/20 07:25:56;;;;;;;7.60;7.30;;;;;;;-143.83;100.00;62900.06;5087615;27;20027;-64
2022/07/20 07:28:22;;;;;;;7.70;7.40;;;;;;;-143.83;100.00;62900.06;5089043;27;20110;-63
2022/07/20 07:30:50;;;;;;;7.53;7.22;;;;;;;-143.83;100.00;62900.06;5092032;27;20027;-64
2022/07/20 07:33:16;;;;;;;7.50;7.20;;;;;;;-143.83;100.00;62900.06;5096434;27;20168;-63
2022/07/20 07:35:41;;;;;;;7.50;7.20;;;;;;;-143.83;100.00;62900.06;5091234;27;20119;-63
2022/07/20 07:38:07;;;;;;;7.32;7.03;;;;;;;-143.83;100.00;62900.06;5104971;27;20813;-63
2022/07/20 07:40:32;;;;;;;7.40;7.10;;;;;;;-143.83;100.00;62900.06;5116466;27;20052;-65
2022/07/20 07:42:58;;;;;;;7.40;7.10;;;;;;;-143.83;100.00;62900.06;5107479;27;20036;-65
2022/07/20 07:45:23;;;;;;;7.60;7.30;;;;;;;-143.83;100.00;62900.06;5107887;28;20615;-64
2022/07/20 07:47:49;;;;;;;7.40;7.10;;;;;;;-143.83;100.00;62900.06;5106424;27;20031;-64
2022/07/20 07:50:14;;;;;;;7.45;7.15;;;;;;;-143.83;100.00;62900.06;5109613;27;20027;-63
2022/07/20 07:52:40;;;;;;;7.22;6.93;;;;;;;-143.83;100.00;62900.06;5109411;27;20394;-64
2022/07/20 07:55:06;;;;;;;7.35;7.05;;;;;;;-143.83;100.00;62900.06;5109819;27;20072;-64
2022/07/20 07:57:31;;;;;;;6.82;6.53;;;;;;;-143.83;100.00;62900.06;5117908;27;20042;-63
2022/07/20 07:59:57;;;;;;;7.00;6.70;;;;;;;-143.83;100.00;62900.06;5107000;27;20035;-63
2022/07/20 08:02:22;;;;;;;7.20;6.90;;;;;;;-143.83;100.00;62900.06;5114137;27;20048;-63
2022/07/20 08:04:48;;;;;;;7.30;7.00;;;;;;;-143.83;100.00;62900.06;5098908;27;20362;-64
2022/07/20 08:07:13;;;;;;;7.20;6.90;;;;;;;-143.83;100.00;62900.06;5095335;28;20031;-63
2022/07/20 08:09:39;;;;;;;7.18;6.88;;;;;;;-143.83;100.00;62900.06;5108641;28;20498;-62
2022/07/20 08:12:05;;;;;;;7.00;6.70;;;;;;;-143.83;100.00;62900.06;5108478;28;20501;-63
2022/07/20 08:14:31;;;;;;;7.10;6.80;;;;;;;-143.83;100.00;62900.06;5107025;28;20031;-64
2022/07/20 08:16:56;;;;;;;7.22;6.93;;;;;;;-143.83;100.00;62900.06;5106125;28;20076;-63
2022/07/20 08:19:22;;;;;;;7.10;6.80;;;;;;;-143.83;100.00;62900.06;5096445;28;20546;-64
2022/07/20 08:21:47;;;;;;;6.93;6.63;;;;;;;-143.83;100.00;62900.06;5108059;28;20417;-64
2022/07/20 08:24:14;;;;;;;7.28;6.97;;;;;;;-143.83;100.00;62900.06;5100774;28;20157;-63
2022/07/20 08:26:40;;;;;;;7.22;6.93;;;;;;;-143.83;100.00;62900.06;5107456;28;20098;-63
2022/07/20 08:29:05;;;;;;;7.15;6.85;;;;;;;-143.83;100.00;62900.06;5095157;28;20157;-63
2022/07/20 08:31:31;;;;;;;7.05;6.75;;;;;;;-143.83;100.00;62900.06;5106862;28;20034;-65
2022/07/20 08:33:57;;;;;;;7.20;6.90;;;;;;;-143.83;100.00;62900.06;5106541;28;20039;-64
2022/07/20 08:36:23;;;;;;;7.32;7.03;;;;;;;-143.83;100.00;62900.06;5103430;28;20027;-63
2022/07/20 08:38:48;;;;;;;7.30;7.00;;;;;;;-143.83;100.00;62900.06;5094364;28;20031;-63
2022/07/20 08:41:15;;;;;;;7.10;6.80;;;;;;;-143.83;100.00;62900.06;5103422;28;20040;-63
2022/07/20 08:43:41;;;;;;;6.93;6.63;;;;;;;-143.83;100.00;62900.06;5107718;28;20032;-63
2022/07/20 08:46:07;;;;;;;7.00;6.70;;;;;;;-143.83;100.00;62900.06;5107704;28;20034;-64
2022/07/20 08:48:35;;;;;;;7.18;6.88;;;;;;;-143.83;100.00;62900.06;5113099;28;20398;-63
2022/07/20 08:51:01;;;;;;;7.30;7.00;;;;;;;-143.83;100.00;62900.06;5105870;28;20512;-64
2022/07/20 08:53:26;;;;;;;7.40;7.10;;;;;;;-143.83;100.00;62900.06;5107706;28;20479;-63
2022/07/20 08:55:52;;;;;;;7.07;6.78;;;;;;;-143.83;100.00;62900.06;5106958;28;20050;-63
2022/07/20 08:58:18;;;;;;;7.13;6.82;;;;;;;-143.83;100.00;62900.06;5113239;27;20035;-62
2022/07/20 09:00:44;;;;;;;6.95;6.65;;;;;;;-143.83;100.00;62900.06;5109578;27;20027;-64
2022/07/20 09:03:11;;;;;;;7.40;7.10;;;;;;;-143.83;100.00;62900.06;5107185;27;20036;-64
2022/07/20 09:05:39;;;;;;;6.82;6.53;;;;;;;-143.83;100.00;62900.06;5101665;28;20028;-64
2022/07/20 09:08:07;;;;;;;7.10;6.80;;;;;;;-143.83;100.00;62900.06;5106331;27;20438;-64
2022/07/20 09:10:38;;;;;;;6.88;6.57;;;;;;;-143.83;100.00;62900.06;5110935;28;20054;-64
2022/07/20 09:13:03;;;;;;;7.10;6.80;;;;;;;-143.83;100.00;62900.06;5105924;28;20027;-64
2022/07/20 09:15:31;;;;;;;6.95;6.65;;;;;;;-143.83;100.00;62900.06;5106523;28;20482;-65
2022/07/20 09:18:05;;;;;;;6.88;6.57;;;;;;;-143.83;100.00;62900.06;5108118;28;20020;-64
2022/07/20 09:20:33;;;;;;;7.07;6.78;;;;;;;-143.83;100.00;62900.06;5106314;28;20031;-63
2022/07/20 09:23:07;;;;;;;6.70;6.40;;;;;;;-143.83;100.00;62900.06;5101772;28;20035;-65
2022/07/20 09:25:33;;;;;;;6.90;6.60;;;;;;;-143.83;100.00;62900.06;5111034;27;20101;-64
2022/07/20 09:27:59;;;;;;;6.75;6.45;;;;;;;-143.83;100.00;62900.06;5095614;28;20028;-63
2022/07/20 09:30:25;;;;;;;6.88;6.57;;;;;;;-143.83;100.00;62900.06;5106308;28;20055;-62
2022/07/20 09:32:57;;;;;;;7.00;6.70;;;;;;;-143.83;100.00;62900.06;5117492;27;20092;-62
2022/07/20 09:35:26;;;;;;;7.00;6.70;;;;;;;-143.83;100.00;62900.06;5110685;28;20569;-63
2022/07/20 09:37:53;;;;;;;6.70;6.40;;;;;;;-143.83;100.00;62900.06;5118007;27;20038;-64
2022/07/20 09:40:19;;;;;;;7.00;6.70;;;;;;;-143.83;100.00;62900.06;5102785;27;20054;-61
2022/07/20 09:42:46;;;;;;;6.82;6.53;;;;;;;-143.83;100.00;62900.06;5111290;27;20023;-63
2022/07/20 09:45:29;;;;;;;6.93;6.63;;;;;;;-143.83;100.00;62900.06;5113110;27;20031;-64
2022/07/20 09:48:06;;;;;;;6.78;6.47;;;;;;;-143.83;100.00;62900.06;5122155;27;20500;-64
2022/07/20 09:50:35;;;;;;;6.88;6.57;;;;;;;-143.83;100.00;62900.06;5104559;27;20039;-64
2022/07/20 09:53:01;;;;;;;6.93;6.63;;;;;;;-143.83;100.00;62900.06;5103633;28;20031;-64
2022/07/20 09:55:27;;;;;;;6.90;6.60;;;;;;;-143.83;100.00;62900.06;5114638;27;20098;-64
2022/07/20 09:57:54;;;;;;;7.00;6.70;;;;;;;-143.83;100.00;62900.06;5112386;27;20513;-64
2022/07/20 10:00:19;;;;;;;7.10;6.80;;;;;;;-143.83;100.00;62900.06;5108370;27;20034;-64
2022/07/20 10:02:47;;;;;;;6.90;6.60;;;;;;;-143.83;100.00;62900.06;5111619;27;20395;-64
2022/07/20 10:05:15;;;;;;;7.10;6.80;;;;;;;-143.83;100.00;62900.06;5102690;27;20036;-65
2022/07/20 10:07:43;;;;;;;7.10;6.80;;;;;;;-143.83;100.00;62900.06;5112432;27;20042;-64
2022/07/20 10:10:09;;;;;;;6.93;6.63;;;;;;;-143.83;100.00;62900.06;5109692;27;20220;-64
2022/07/20 10:12:35;;;;;;;6.82;6.53;;;;;;;-143.83;100.00;62900.06;5099477;27;20047;-62
2022/07/20 10:15:04;;;;;;;6.90;6.60;;;;;;;-143.83;100.00;62900.06;5104429;27;20506;-64
2022/07/20 10:17:31;;;;;;;7.13;6.82;;;;;;;-143.83;100.00;62900.06;5106466;27;20046;-63
2022/07/20 10:19:57;;;;;;;7.10;6.80;;;;;;;-143.83;100.00;62900.06;5111355;27;20030;-64
2022/07/20 10:22:22;;;;;;;7.00;6.70;;;;;;;-143.83;100.00;62900.06;5098160;27;20068;-64
2022/07/20 10:25:17;;;;;;;7.28;6.97;;;;;;;-143.83;100.00;62900.06;5110008;27;20077;-64
2022/07/20 10:27:43;;;;;;;7.00;6.70;;;;;;;-143.83;100.00;62900.06;5107062;27;20394;-64
2022/07/20 10:30:17;;;;;;;7.22;6.93;;;;;;;-143.83;100.00;62900.06;5111288;27;20107;-63
2022/07/20 10:32:52;;;;;;;7.00;6.70;;;;;;;-143.83;100.00;62900.06;5108678;27;20087;-64
2022/07/20 10:35:28;;;;;;;6.97;6.68;;;;;;;-143.83;100.00;62900.06;5110202;27;20046;-62
2022/07/20 10:37:56;;;;;;;6.90;6.60;;;;;;;-143.83;100.00;62900.06;5104821;27;20028;-65
2022/07/20 10:40:28;;;;;;;7.00;6.70;;;;;;;-143.83;100.00;62900.06;5108108;27;20046;-63
2022/07/20 10:43:11;;;;;;;6.90;6.60;;;;;;;-143.83;100.00;62900.06;5107431;28;20728;-63
2022/07/20 10:45:37;;;;;;;6.88;6.57;;;;;;;-143.83;100.00;62900.06;5091097;27;20502;-63
2022/07/20 10:48:03;;;;;;;7.00;6.70;;;;;;;-143.83;100.00;62900.06;5105795;28;20067;-64
2022/07/20 10:50:37;;;;;;;7.00;6.70;;;;;;;-143.83;100.00;62900.06;5112692;27;20092;-64
2022/07/20 10:53:11;;;;;;;7.05;6.75;;;;;;;-143.83;100.00;62900.06;5115434;27;20056;-64
2022/07/20 10:55:40;;;;;;;6.78;6.47;;;;;;;-143.83;100.00;62900.06;5110556;27;20531;-65
2022/07/20 10:58:07;;;;;;;6.82;6.53;;;;;;;-143.83;100.00;62900.06;5110031;27;20030;-63
2022/07/20 11:00:38;;;;;;;7.10;6.80;;;;;;;-143.83;100.00;62900.06;5102341;28;20558;-64
2022/07/20 11:03:12;;;;;;;6.90;6.60;;;;;;;-143.83;100.00;62900.06;5108099;28;20506;-64
2022/07/20 11:05:38;;;;;;;;;;;;;;;-143.83;100.00;62900.06;5107529;27;20035;-64
2022/07/20 11:08:08;;;;;;;6.60;6.30;;;;;;;-143.83;100.00;62900.06;5104238;28;20712;-64